Time;durP1;ratioP1;P1;durP2;ratioP2;P2;SDS_P1;SDS_P2;PMS_P1;PMS_P2;Temp;Humidity;BMP_temperature;BMP_pressure;BME280_temperature;BME280_humidity;BME280_pressure;Samples;Min_cycle;Max_cycle;Signal;HPM_P1;HPM_P2
2022/03/10 00:01:10;;;;;;;42.73;21.77;;;;;3.30;101687.00;;;;10278237;28;20294;-77
2022/03/10 00:06:13;;;;;;;37.57;20.30;;;;;3.20;101686.00;;;;10294172;28;20308;-74
2022/03/10 00:11:15;;;;;;;37.87;20.93;;;;;3.00;101694.00;;;;10293604;28;20758;-75
2022/03/10 00:16:17;;;;;;;37.43;21.17;;;;;2.90;101692.00;;;;10291484;28;20196;-75
2022/03/10 00:21:19;;;;;;;37.73;21.13;;;;;2.70;101693.00;;;;10300375;28;20219;-75
2022/03/10 00:26:21;;;;;;;36.90;19.27;;;;;2.50;101699.00;;;;10322570;28;20196;-75
2022/03/10 00:31:23;;;;;;;42.13;21.00;;;;;2.50;101700.00;;;;10310903;28;20204;-75
2022/03/10 00:36:26;;;;;;;40.80;21.13;;;;;2.30;101692.00;;;;10293535;28;20196;-75
2022/03/10 00:41:28;;;;;;;37.80;20.20;;;;;2.20;101694.00;;;;10293198;28;20220;-75
2022/03/10 00:46:29;;;;;;;35.80;19.97;;;;;2.20;101695.00;;;;10306442;28;20242;-77
2022/03/10 00:51:32;;;;;;;38.73;20.60;;;;;2.10;101698.00;;;;10309595;28;20203;-75
2022/03/10 00:56:34;;;;;;;37.67;21.03;;;;;2.10;101697.00;;;;10292557;28;20861;-77
2022/03/10 01:01:38;;;;;;;46.57;22.10;;;;;2.00;101695.00;;;;10293412;28;20219;-77
2022/03/10 01:06:40;;;;;;;40.80;21.03;;;;;1.90;101690.00;;;;10283289;28;20246;-77
2022/03/10 01:11:45;;;;;;;40.10;21.40;;;;;2.00;101692.00;;;;10292204;28;20207;-77
2022/03/10 01:16:47;;;;;;;40.93;22.40;;;;;2.00;101691.00;;;;10298582;28;20287;-75
2022/03/10 01:21:49;;;;;;;44.30;23.17;;;;;1.90;101682.00;;;;10297913;28;20220;-77
2022/03/10 01:26:53;;;;;;;44.33;22.03;;;;;1.90;101682.00;;;;10316694;28;20208;-75
2022/03/10 01:31:55;;;;;;;37.10;21.87;;;;;2.00;101671.00;;;;10276045;28;20211;-77
2022/03/10 01:36:56;;;;;;;37.00;20.47;;;;;2.00;101667.00;;;;10297378;28;20235;-77
2022/03/10 01:41:59;;;;;;;36.77;20.37;;;;;1.90;101666.00;;;;10273958;28;20220;-77
2022/03/10 01:47:02;;;;;;;33.87;20.10;;;;;1.80;101666.00;;;;10271422;28;20197;-77
2022/03/10 01:52:04;;;;;;;42.23;22.03;;;;;1.70;101663.00;;;;10283209;28;20196;-77
2022/03/10 01:57:06;;;;;;;38.13;19.93;;;;;1.50;101667.00;;;;10315860;28;20266;-77
2022/03/10 02:02:09;;;;;;;35.43;19.87;;;;;1.50;101658.00;;;;10299650;28;20278;-77
2022/03/10 02:10:16;;;;;;;41.33;21.53;;;;;1.40;101659.00;;;;10299711;28;20821;-77
2022/03/10 02:12:33;;;;;;;40.03;22.20;;;;;1.50;101657.00;;;;10314545;28;20196;-77
2022/03/10 02:17:39;;;;;;;36.67;19.90;;;;;1.50;101648.00;;;;10299536;28;20200;-76
2022/03/10 02:22:41;;;;;;;40.23;20.10;;;;;1.30;101653.00;;;;10313310;28;20652;-77
2022/03/10 02:27:49;;;;;;;39.33;21.37;;;;;1.20;101645.00;;;;10314220;28;20207;-77
2022/03/10 02:32:52;;;;;;;34.17;19.50;;;;;1.20;101650.00;;;;10298758;28;20278;-76
2022/03/10 02:37:56;;;;;;;42.63;20.67;;;;;1.00;101653.00;;;;10281890;28;20274;-77
2022/03/10 02:42:58;;;;;;;43.20;21.57;;;;;1.00;101655.00;;;;10309531;28;20195;-77
2022/03/10 02:48:00;;;;;;;36.20;19.53;;;;;0.90;101643.00;;;;10298758;28;20261;-77
2022/03/10 02:53:02;;;;;;;42.60;22.23;;;;;0.90;101648.00;;;;10330046;28;20189;-77
2022/03/10 02:58:05;;;;;;;45.63;22.20;;;;;0.90;101640.00;;;;10295855;28;20607;-77
2022/03/10 03:03:07;;;;;;;41.70;21.37;;;;;0.90;101643.00;;;;10297458;28;20200;-77
2022/03/10 03:08:09;;;;;;;45.00;22.50;;;;;0.90;101634.00;;;;10303722;28;20684;-77
2022/03/10 03:13:10;;;;;;;40.40;21.10;;;;;0.80;101648.00;;;;10319615;28;20283;-77
2022/03/10 03:18:12;;;;;;;36.70;20.70;;;;;0.70;101654.00;;;;10317542;28;20262;-77
2022/03/10 03:23:15;;;;;;;35.80;20.20;;;;;0.70;101649.00;;;;10282251;28;20280;-77
2022/03/10 03:28:17;;;;;;;41.40;22.30;;;;;0.60;101653.00;;;;10272876;28;20220;-77
2022/03/10 03:33:19;;;;;;;40.03;21.73;;;;;0.60;101649.00;;;;10303013;28;20211;-77
2022/03/10 03:38:21;;;;;;;41.73;22.43;;;;;0.60;101647.00;;;;10304363;28;20263;-77
2022/03/10 03:43:23;;;;;;;39.97;21.97;;;;;0.60;101645.00;;;;10280965;28;20204;-77
2022/03/10 03:48:25;;;;;;;41.97;22.83;;;;;0.70;101651.00;;;;10297221;28;20669;-77
2022/03/10 03:53:27;;;;;;;40.80;22.07;;;;;0.70;101665.00;;;;10320835;28;20200;-77
2022/03/10 03:58:29;;;;;;;41.63;21.27;;;;;0.60;101668.00;;;;10297027;28;20243;-77
2022/03/10 04:03:32;;;;;;;41.00;20.57;;;;;0.50;101663.00;;;;10312208;28;20710;-77
2022/03/10 04:08:34;;;;;;;41.43;21.43;;;;;0.50;101669.00;;;;10309567;28;20219;-77
2022/03/10 04:13:37;;;;;;;40.90;21.83;;;;;0.50;101663.00;;;;10301026;28;20689;-77
2022/03/10 04:18:39;;;;;;;40.27;21.80;;;;;0.50;101676.00;;;;10278653;28;20628;-77
2022/03/10 04:23:41;;;;;;;38.67;20.43;;;;;0.60;101682.00;;;;10302002;28;20218;-77
2022/03/10 04:28:43;;;;;;;42.77;22.67;;;;;0.70;101673.00;;;;10294062;28;20204;-77
2022/03/10 04:33:44;;;;;;;46.17;24.00;;;;;0.70;101687.00;;;;10292298;28;20674;-77
2022/03/10 04:38:46;;;;;;;46.17;23.60;;;;;0.60;101675.00;;;;10314726;28;20587;-77
2022/03/10 04:43:48;;;;;;;42.23;22.73;;;;;0.60;101682.00;;;;10292999;28;20246;-77
2022/03/10 04:48:50;;;;;;;42.70;23.20;;;;;0.70;101683.00;;;;10292619;28;20204;-77
2022/03/10 04:53:53;;;;;;;40.80;21.23;;;;;0.70;101679.00;;;;10309099;28;20206;-77
2022/03/10 04:58:55;;;;;;;39.77;21.60;;;;;0.60;101692.00;;;;10292009;28;20223;-77
2022/03/10 05:03:56;;;;;;;43.30;22.93;;;;;0.70;101683.00;;;;10298854;28;20231;-77
2022/03/10 05:09:01;;;;;;;45.07;23.60;;;;;0.70;101696.00;;;;10313342;28;20456;-77
2022/03/10 05:14:06;;;;;;;40.40;21.67;;;;;0.60;101689.00;;;;10300452;28;20300;-77
2022/03/10 05:19:08;;;;;;;41.73;21.57;;;;;0.50;101687.00;;;;10290824;28;20271;-77
2022/03/10 05:24:10;;;;;;;45.17;21.93;;;;;0.50;101686.00;;;;10273899;28;20331;-77
2022/03/10 05:29:12;;;;;;;44.93;22.23;;;;;0.80;101692.00;;;;10306434;28;20212;-77
2022/03/10 05:34:14;;;;;;;40.23;23.00;;;;;1.00;101689.00;;;;10289995;28;20211;-77
2022/03/10 05:39:16;;;;;;;45.87;25.53;;;;;1.00;101690.00;;;;10301122;28;20319;-77
2022/03/10 05:44:18;;;;;;;46.20;23.03;;;;;0.80;101683.00;;;;10288453;28;20196;-76
2022/03/10 05:49:19;;;;;;;40.90;23.13;;;;;0.90;101686.00;;;;10291649;28;20215;-77
2022/03/10 05:54:22;;;;;;;43.90;22.77;;;;;0.70;101694.00;;;;10274610;28;20220;-77
2022/03/10 05:59:24;;;;;;;39.97;20.90;;;;;0.50;101687.00;;;;10273310;28;20220;-77
2022/03/10 06:04:26;;;;;;;38.93;20.93;;;;;0.30;101683.00;;;;10326170;28;20286;-77
2022/03/10 06:09:28;;;;;;;33.50;19.20;;;;;0.20;101676.00;;;;10320653;28;20208;-77
2022/03/10 06:14:30;;;;;;;49.17;23.37;;;;;0.20;101683.00;;;;10302635;28;20283;-77
2022/03/10 06:19:32;;;;;;;43.37;24.00;;;;;0.30;101691.00;;;;10294819;28;20225;-77
2022/03/10 06:24:34;;;;;;;46.80;23.87;;;;;0.40;101695.00;;;;10313724;28;20208;-77
2022/03/10 06:29:41;;;;;;;44.03;24.67;;;;;0.50;101702.00;;;;10273666;28;20208;-77
2022/03/10 06:34:45;;;;;;;44.50;24.37;;;;;0.70;101706.00;;;;10289519;28;20240;-76
2022/03/10 06:39:47;;;;;;;51.43;26.53;;;;;1.30;101706.00;;;;10297827;28;20250;-76
2022/03/10 06:44:50;;;;;;;47.90;25.00;;;;;1.70;101701.00;;;;10286444;28;20303;-76
2022/03/10 06:49:51;;;;;;;43.97;24.20;;;;;2.10;101722.00;;;;10274879;28;20234;-76
2022/03/10 06:54:53;;;;;;;46.13;24.33;;;;;2.30;101723.00;;;;10292157;28;20192;-76
2022/03/10 06:59:55;;;;;;;46.90;25.00;;;;;2.50;101717.00;;;;10281775;28;20921;-76
2022/03/10 07:04:57;;;;;;;43.87;24.20;;;;;2.70;101720.00;;;;10289784;28;20239;-75
2022/03/10 07:09:59;;;;;;;54.17;26.20;;;;;3.10;101721.00;;;;10308555;28;20204;-76
2022/03/10 07:15:03;;;;;;;44.10;24.97;;;;;3.40;101720.00;;;;10297760;28;20208;-76
2022/03/10 07:20:07;;;;;;;41.03;23.30;;;;;4.00;101728.00;;;;10288794;28;20213;-75
2022/03/10 07:25:09;;;;;;;38.87;24.10;;;;;4.60;101730.00;;;;10273449;28;20215;-76
2022/03/10 07:30:12;;;;;;;40.03;22.73;;;;;5.20;101732.00;;;;10290508;28;20207;-76
2022/03/10 07:35:14;;;;;;;36.93;22.37;;;;;5.70;101727.00;;;;10318848;28;20203;-76
2022/03/10 07:40:16;;;;;;;39.23;22.43;;;;;6.20;101737.00;;;;10277410;28;20495;-77
2022/03/10 07:45:18;;;;;;;34.67;21.07;;;;;6.80;101736.00;;;;10291838;28;20311;-77
2022/03/10 07:50:20;;;;;;;30.87;19.43;;;;;7.50;101731.00;;;;10293400;28;20201;-76
2022/03/10 07:55:23;;;;;;;33.57;19.83;;;;;8.20;101735.00;;;;10307717;28;20775;-76
2022/03/10 08:00:24;;;;;;;34.27;20.47;;;;;8.60;101743.00;;;;10289398;28;20227;-77
2022/03/10 08:05:26;;;;;;;30.53;19.03;;;;;9.00;101750.00;;;;10305354;28;20212;-76
2022/03/10 08:10:30;;;;;;;36.07;20.40;;;;;9.40;101738.00;;;;10302652;28;20200;-77
2022/03/10 08:15:32;;;;;;;31.00;19.30;;;;;9.80;101749.00;;;;10304807;28;20196;-76
2022/03/10 08:20:34;;;;;;;32.10;19.53;;;;;10.10;101745.00;;;;10321243;28;20247;-77
2022/03/10 08:25:39;;;;;;;34.63;20.13;;;;;10.40;101745.00;;;;10291629;28;20675;-77
2022/03/10 08:30:41;;;;;;;36.43;20.53;;;;;10.80;101741.00;;;;10290724;28;20215;-77
2022/03/10 08:35:43;;;;;;;31.43;20.53;;;;;11.30;101749.00;;;;10284325;28;20302;-77
2022/03/10 08:40:45;;;;;;;29.03;17.97;;;;;11.70;101744.00;;;;10307628;28;20216;-77
2022/03/10 08:45:47;;;;;;;29.77;19.00;;;;;12.10;101737.00;;;;10285008;28;20230;-77
2022/03/10 08:50:49;;;;;;;28.60;19.03;;;;;12.50;101735.00;;;;10274798;28;20208;-77
2022/03/10 08:55:54;;;;;;;32.80;20.10;;;;;13.10;101737.00;;;;10273638;28;20200;-76
2022/03/10 09:00:59;;;;;;;29.53;20.80;;;;;13.40;101731.00;;;;10269092;28;20950;-76
2022/03/10 09:06:21;;;;;;;31.50;19.07;;;;;13.80;101721.00;;;;10304418;28;20215;-77
2022/03/10 09:11:22;;;;;;;28.27;19.57;;;;;14.10;101720.00;;;;10289795;28;20195;-77
2022/03/10 09:16:25;;;;;;;30.40;19.83;;;;;14.30;101720.00;;;;10320533;28;20208;-77
2022/03/10 09:21:27;;;;;;;31.17;20.00;;;;;14.40;101705.00;;;;10285471;28;20235;-77
2022/03/10 09:26:29;;;;;;;31.37;18.83;;;;;14.60;101696.00;;;;10264398;28;20196;-77
2022/03/10 09:31:31;;;;;;;32.20;20.53;;;;;15.10;101703.00;;;;10290234;28;20204;-77
2022/03/10 09:36:33;;;;;;;26.13;19.13;;;;;15.50;101700.00;;;;10290465;28;20211;-77
2022/03/10 09:41:37;;;;;;;26.03;17.63;;;;;15.80;101704.00;;;;10282277;28;20697;-78
2022/03/10 09:46:40;;;;;;;30.93;19.53;;;;;16.20;101690.00;;;;10309021;28;20208;-77
2022/03/10 09:51:42;;;;;;;24.47;17.77;;;;;16.60;101691.00;;;;10320754;28;20246;-75
2022/03/10 09:56:44;;;;;;;26.47;19.97;;;;;16.70;101680.00;;;;10310075;28;20219;-75
2022/03/10 10:01:46;;;;;;;25.40;18.00;;;;;16.70;101677.00;;;;10319979;28;20449;-76
2022/03/10 10:07:04;;;;;;;28.07;18.50;;;;;17.00;101670.00;;;;10311144;28;20279;-76
2022/03/10 10:12:08;;;;;;;27.40;18.10;;;;;17.20;101673.00;;;;10328242;28;20204;-76
2022/03/10 10:17:10;;;;;;;23.45;17.95;;;;;17.40;101662.00;;;;10325659;28;20223;-76
2022/03/10 10:22:20;;;;;;;27.30;18.05;;;;;17.80;101661.00;;;;10325902;28;20695;-76
2022/03/10 10:27:26;;;;;;;25.50;16.80;;;;;18.20;101654.00;;;;10309523;28;20861;-75
2022/03/10 10:32:33;;;;;;;26.15;17.95;;;;;18.30;101649.00;;;;10289967;28;20421;-75
2022/03/10 10:37:37;;;;;;;26.38;19.27;;;;;18.70;101641.00;;;;10349455;28;20220;-75
2022/03/10 10:42:42;;;;;;;21.60;15.68;;;;;18.80;101632.00;;;;10306087;28;20224;-76
2022/03/10 10:48:04;;;;;;;24.80;18.23;;;;;19.00;101642.00;;;;10301755;28;20305;-75
2022/03/10 10:53:07;;;;;;;25.23;17.58;;;;;19.20;101633.00;;;;10325331;28;20222;-75
2022/03/10 10:58:11;;;;;;;23.27;16.40;;;;;19.20;101632.00;;;;10299343;28;20201;-75
2022/03/10 11:03:24;;;;;;;22.38;15.88;;;;;19.40;101626.00;;;;10330064;28;20290;-76
2022/03/10 11:08:28;;;;;;;22.30;16.52;;;;;19.40;101631.00;;;;10293214;28;20211;-76
2022/03/10 11:13:32;;;;;;;22.13;15.82;;;;;19.40;101620.00;;;;10309020;28;20444;-75
2022/03/10 11:18:37;;;;;;;21.45;16.73;;;;;19.60;101619.00;;;;10300537;28;20271;-76
2022/03/10 11:23:39;;;;;;;25.77;16.48;;;;;19.70;101616.00;;;;10304327;28;20319;-76
2022/03/10 11:28:47;;;;;;;23.73;17.33;;;;;19.90;101613.00;;;;10293292;28;20216;-75
2022/03/10 11:33:49;;;;;;;26.13;18.05;;;;;19.90;101603.00;;;;10328714;28;20215;-76
2022/03/10 11:38:51;;;;;;;26.83;17.45;;;;;20.00;101595.00;;;;10298926;28;20221;-76
2022/03/10 11:43:59;;;;;;;23.20;16.33;;;;;20.10;101589.00;;;;10293712;28;20212;-76
2022/03/10 11:49:06;;;;;;;24.95;17.60;;;;;20.10;101583.00;;;;10317898;28;20200;-76
2022/03/10 11:54:09;;;;;;;29.33;18.48;;;;;20.30;101573.00;;;;10286213;28;20204;-76
2022/03/10 11:59:24;;;;;;;22.63;15.27;;;;;20.50;101567.00;;;;10276526;28;20197;-76
2022/03/10 12:04:40;;;;;;;23.08;15.63;;;;;20.90;101558.00;;;;10313177;28;20203;-76
2022/03/10 12:09:59;;;;;;;18.35;13.75;;;;;20.90;101568.00;;;;10284350;28;20210;-76
2022/03/10 12:15:23;;;;;;;20.38;12.52;;;;;20.90;101558.00;;;;10269163;28;20259;-76
2022/03/10 12:20:40;;;;;;;19.98;14.48;;;;;21.00;101549.00;;;;10302588;28;20223;-76
2022/03/10 12:26:06;;;;;;;18.25;13.63;;;;;21.20;101548.00;;;;10270193;28;20207;-77
2022/03/10 12:31:18;;;;;;;18.75;13.23;;;;;21.40;101542.00;;;;10282863;28;20254;-76
2022/03/10 12:36:26;;;;;;;15.98;11.48;;;;;21.40;101531.00;;;;10258953;28;20200;-76
2022/03/10 12:41:34;;;;;;;15.10;11.73;;;;;21.30;101517.00;;;;10308513;28;20294;-77
2022/03/10 12:46:38;;;;;;;17.00;12.15;;;;;21.40;101518.00;;;;10254482;28;20491;-77
2022/03/10 12:51:41;;;;;;;17.40;12.43;;;;;21.40;101519.00;;;;10324652;28;20196;-76
2022/03/10 12:56:57;;;;;;;16.33;11.80;;;;;21.50;101512.00;;;;10308393;28;20196;-77
2022/03/10 13:02:16;;;;;;;17.80;12.57;;;;;21.60;101507.00;;;;10313602;28;20229;-77
2022/03/10 13:07:23;;;;;;;15.52;11.20;;;;;21.70;101507.00;;;;10306441;28;20553;-77
2022/03/10 13:12:30;;;;;;;14.65;11.10;;;;;21.70;101513.00;;;;10322646;28;20192;-76
2022/03/10 13:17:40;;;;;;;12.88;9.70;;;;;21.70;101490.00;;;;10298144;28;20216;-77
2022/03/10 13:23:06;;;;;;;16.20;10.07;;;;;21.90;101490.00;;;;10304484;28;20230;-77
2022/03/10 13:28:10;;;;;;;15.23;10.80;;;;;21.90;101480.00;;;;10316121;28;20202;-76
2022/03/10 13:33:13;;;;;;;13.15;10.10;;;;;21.80;101484.00;;;;10293834;28;20319;-77
2022/03/10 13:38:18;;;;;;;14.07;10.60;;;;;22.10;101469.00;;;;10291022;28;20282;-76
2022/03/10 13:43:24;;;;;;;16.13;11.27;;;;;22.90;101465.00;;;;10277461;28;20835;-77
2022/03/10 13:48:26;;;;;;;15.70;11.05;;;;;23.90;101461.00;;;;10300370;28;20678;-76
2022/03/10 13:53:28;;;;;;;16.15;11.05;;;;;25.30;101431.00;;;;10294983;28;20212;-76
2022/03/10 13:58:30;;;;;;;13.57;10.55;;;;;25.30;101422.00;;;;10313203;28;20208;-77
2022/03/10 14:03:37;;;;;;;16.27;11.70;;;;;24.10;101409.00;;;;10280397;28;20731;-76
2022/03/10 14:08:47;;;;;;;15.88;11.75;;;;;25.90;101387.00;;;;10328891;28;20261;-76
2022/03/10 14:13:49;;;;;;;13.00;9.02;;;;;25.90;101393.00;;;;10296529;28;20524;-75
2022/03/10 14:18:51;;;;;;;13.88;8.80;;;;;25.00;101395.00;;;;10267022;28;20208;-75
2022/03/10 14:23:58;;;;;;;13.90;9.75;;;;;24.90;101377.00;;;;10291341;28;20220;-76
2022/03/10 14:29:00;;;;;;;17.20;9.70;;;;;25.40;101359.00;;;;10309923;28;20204;-77
2022/03/10 14:34:02;;;;;;;15.27;9.43;;;;;25.40;101358.00;;;;10299173;28;20204;-77
2022/03/10 14:39:04;;;;;;;15.00;9.68;;;;;25.60;101340.00;;;;10297524;28;20220;-77
2022/03/10 14:44:10;;;;;;;16.92;10.30;;;;;25.80;101325.00;;;;10295366;28;20785;-78
2022/03/10 14:49:12;;;;;;;15.13;10.65;;;;;27.50;101296.00;;;;10297893;28;20235;-77
2022/03/10 14:54:14;;;;;;;16.20;10.65;;;;;24.60;101361.00;;;;10311861;28;20204;-77
2022/03/10 14:59:17;;;;;;;14.10;10.55;;;;;26.60;101306.00;;;;10300949;28;20834;-76
2022/03/10 15:04:19;;;;;;;16.20;10.93;;;;;24.70;101328.00;;;;10306868;28;20279;-77
2022/03/10 15:09:21;;;;;;;16.50;10.77;;;;;24.20;101372.00;;;;10297707;28;20204;-77
2022/03/10 15:14:26;;;;;;;18.85;12.80;;;;;23.50;101281.00;;;;10327846;28;20250;-77
2022/03/10 15:19:28;;;;;;;15.77;11.00;;;;;22.90;101345.00;;;;10276815;28;20207;-77
2022/03/10 15:24:30;;;;;;;19.50;12.05;;;;;24.60;101295.00;;;;10327694;28;20678;-77
2022/03/10 15:29:33;;;;;;;17.08;12.70;;;;;22.90;101337.00;;;;10271143;28;20300;-77
2022/03/10 15:34:35;;;;;;;17.00;11.88;;;;;23.20;101312.00;;;;10281564;28;20706;-77
2022/03/10 15:39:37;;;;;;;18.83;13.38;;;;;21.90;101333.00;;;;10295251;28;20212;-77
2022/03/10 15:44:39;;;;;;;18.60;11.00;;;;;21.30;101326.00;;;;10311820;28;20247;-78
2022/03/10 15:49:41;;;;;;;17.60;11.73;;;;;20.20;101337.00;;;;10320239;28;20821;-76
2022/03/10 15:54:44;;;;;;;19.40;13.07;;;;;19.10;101336.00;;;;10304106;28;20200;-76
2022/03/10 15:59:46;;;;;;;21.65;14.88;;;;;18.20;101333.00;;;;10291027;28;20196;-76
2022/03/10 16:04:50;;;;;;;24.88;14.38;;;;;17.90;101319.00;;;;10306499;28;20311;-76
2022/03/10 16:09:54;;;;;;;22.63;14.70;;;;;17.90;101314.00;;;;10309298;28;20218;-77
2022/03/10 16:14:56;;;;;;;25.13;15.95;;;;;17.40;101313.00;;;;10290888;28;20211;-76
2022/03/10 16:19:59;;;;;;;27.33;15.73;;;;;17.00;101318.00;;;;10329859;28;20231;-76
2022/03/10 16:25:02;;;;;;;26.88;14.88;;;;;16.80;101313.00;;;;10330257;28;20257;-76
2022/03/10 16:30:06;;;;;;;24.23;15.47;;;;;16.50;101303.00;;;;10337150;28;20211;-76
2022/03/10 16:35:11;;;;;;;23.47;14.77;;;;;16.30;101312.00;;;;10291554;28;20208;-76
2022/03/10 16:40:14;;;;;;;23.47;14.80;;;;;16.00;101301.00;;;;10308071;28;20263;-77
2022/03/10 16:45:17;;;;;;;25.40;15.63;;;;;15.90;101303.00;;;;10275877;28;20254;-76
2022/03/10 16:50:19;;;;;;;21.33;14.67;;;;;15.70;101296.00;;;;10296354;28;20200;-76
2022/03/10 16:55:21;;;;;;;29.67;16.20;;;;;15.50;101289.00;;;;10290707;28;20219;-76
2022/03/10 17:00:24;;;;;;;25.70;14.80;;;;;15.20;101293.00;;;;10253698;28;20239;-76
2022/03/10 17:05:26;;;;;;;31.00;16.73;;;;;15.00;101298.00;;;;10320079;28;20262;-76
2022/03/10 17:10:29;;;;;;;23.90;13.87;;;;;14.80;101293.00;;;;10320825;28;20211;-76
2022/03/10 17:15:31;;;;;;;29.50;16.13;;;;;14.60;101290.00;;;;10345984;28;20658;-76
2022/03/10 17:20:33;;;;;;;22.47;14.27;;;;;14.40;101283.00;;;;10298663;28;20257;-76
2022/03/10 17:25:35;;;;;;;20.07;13.73;;;;;14.20;101288.00;;;;10288668;28;20287;-76
2022/03/10 17:30:38;;;;;;;26.20;14.13;;;;;13.90;101294.00;;;;10303839;28;20233;-76
2022/03/10 17:35:41;;;;;;;24.73;13.70;;;;;13.70;101299.00;;;;10320416;28;20200;-76
2022/03/10 17:40:44;;;;;;;20.97;12.43;;;;;13.60;101290.00;;;;10302256;28;20212;-76
2022/03/10 17:45:46;;;;;;;22.37;13.90;;;;;13.30;101291.00;;;;10288469;28;20200;-77
2022/03/10 17:50:48;;;;;;;19.27;12.97;;;;;13.10;101292.00;;;;10295573;28;20196;-76
2022/03/10 17:55:50;;;;;;;23.23;14.50;;;;;12.80;101290.00;;;;10304551;28;20204;-76
2022/03/10 18:00:52;;;;;;;23.27;13.77;;;;;12.70;101296.00;;;;10287399;28;20211;-76
2022/03/10 18:05:54;;;;;;;21.50;13.73;;;;;12.60;101307.00;;;;10292256;28;20208;-76
2022/03/10 18:10:56;;;;;;;26.40;15.93;;;;;12.50;101300.00;;;;10287706;28;20469;-76
2022/03/10 18:15:58;;;;;;;24.80;15.53;;;;;12.40;101295.00;;;;10303338;28;20636;-76
2022/03/10 18:21:01;;;;;;;24.43;15.73;;;;;12.30;101303.00;;;;10287085;28;20216;-76
2022/03/10 18:26:04;;;;;;;30.57;16.23;;;;;12.10;101309.00;;;;10280025;28;20464;-76
2022/03/10 18:31:06;;;;;;;27.40;16.93;;;;;11.90;101306.00;;;;10276026;28;20196;-76
2022/03/10 18:36:09;;;;;;;25.30;16.73;;;;;11.70;101308.00;;;;10287446;28;20287;-76
2022/03/10 18:41:12;;;;;;;32.63;18.63;;;;;11.40;101297.00;;;;10293962;28;20227;-76
2022/03/10 18:46:15;;;;;;;29.47;17.17;;;;;11.10;101309.00;;;;10279157;28;20211;-76
2022/03/10 18:51:17;;;;;;;30.67;19.30;;;;;10.90;101301.00;;;;10254161;28;20318;-76
2022/03/10 18:56:28;;;;;;;32.13;19.40;;;;;11.00;101291.00;;;;10299933;28;20200;-76
2022/03/10 19:01:30;;;;;;;29.60;18.10;;;;;11.10;101293.00;;;;10294542;28;20686;-76
2022/03/10 19:06:32;;;;;;;28.23;16.87;;;;;10.90;101301.00;;;;10294254;28;20731;-76
2022/03/10 19:11:34;;;;;;;30.97;18.40;;;;;10.90;101289.00;;;;10287420;28;20216;-75
2022/03/10 19:16:37;;;;;;;29.40;17.83;;;;;11.00;101277.00;;;;10325999;28;20196;-76
2022/03/10 19:21:45;;;;;;;39.97;23.77;;;;;10.90;101280.00;;;;10309378;28;20259;-76
2022/03/10 19:26:47;;;;;;;36.63;21.67;;;;;10.80;101282.00;;;;10288901;28;20212;-76
2022/03/10 19:31:50;;;;;;;33.90;20.13;;;;;10.60;101274.00;;;;10318869;28;20619;-76
2022/03/10 19:36:56;;;;;;;32.23;18.17;;;;;10.40;101271.00;;;;10347578;28;20227;-77
2022/03/10 19:42:00;;;;;;;32.23;18.40;;;;;10.20;101267.00;;;;10285842;28;20262;-76
2022/03/10 19:47:02;;;;;;;34.13;20.37;;;;;10.20;101259.00;;;;10276590;28;20209;-76
2022/03/10 19:52:04;;;;;;;33.63;18.27;;;;;10.10;101248.00;;;;10305609;28;20196;-76
2022/03/10 19:57:07;;;;;;;35.97;18.53;;;;;10.00;101244.00;;;;10290281;28;20197;-76
2022/03/10 20:02:09;;;;;;;34.43;19.77;;;;;9.90;101249.00;;;;10290977;28;20537;-76
2022/03/10 20:07:11;;;;;;;30.53;17.90;;;;;9.70;101256.00;;;;10276338;28;20835;-76
2022/03/10 20:12:13;;;;;;;32.50;17.93;;;;;9.50;101253.00;;;;10292425;28;20208;-76
2022/03/10 20:17:16;;;;;;;30.57;18.03;;;;;9.40;101255.00;;;;10324168;28;20217;-76
2022/03/10 20:22:18;;;;;;;41.80;20.30;;;;;9.30;101256.00;;;;10333960;28;20702;-76
2022/03/10 20:27:24;;;;;;;39.17;20.37;;;;;9.10;101248.00;;;;10283399;28;20204;-76
2022/03/10 20:32:26;;;;;;;35.20;19.43;;;;;9.00;101242.00;;;;10270956;28;20212;-76
2022/03/10 20:37:29;;;;;;;31.13;18.63;;;;;9.00;101243.00;;;;10291838;28;20204;-77
2022/03/10 20:42:33;;;;;;;34.67;18.30;;;;;8.90;101232.00;;;;10287317;28;20219;-77
2022/03/10 20:47:35;;;;;;;38.90;22.47;;;;;8.80;101242.00;;;;10309135;28;20203;-77
2022/03/10 20:52:37;;;;;;;33.30;18.50;;;;;8.50;101240.00;;;;10268611;28;20219;-76
2022/03/10 20:57:39;;;;;;;29.77;18.40;;;;;8.20;101235.00;;;;10293225;28;20219;-76
2022/03/10 21:02:44;;;;;;;31.03;17.77;;;;;8.10;101231.00;;;;10302520;28;20230;-76
2022/03/10 21:07:46;;;;;;;31.27;17.17;;;;;8.00;101224.00;;;;10309338;28;20279;-76
2022/03/10 21:12:51;;;;;;;26.57;15.33;;;;;8.10;101219.00;;;;10301414;28;20208;-75
2022/03/10 21:17:52;;;;;;;25.20;15.40;;;;;8.30;101217.00;;;;10303142;28;20208;-76
2022/03/10 21:22:55;;;;;;;24.13;14.00;;;;;8.50;101209.00;;;;10289711;28;20819;-76
2022/03/10 21:27:56;;;;;;;24.67;14.00;;;;;8.50;101214.00;;;;10319378;28;20250;-76
2022/03/10 21:32:58;;;;;;;22.40;13.23;;;;;8.50;101211.00;;;;10329337;28;20232;-76
2022/03/10 21:38:00;;;;;;;23.50;12.40;;;;;8.40;101199.00;;;;10270102;28;20228;-76
2022/03/10 21:43:03;;;;;;;19.53;11.77;;;;;8.20;101195.00;;;;10291310;28;20331;-76
2022/03/10 21:48:05;;;;;;;18.40;11.53;;;;;8.10;101191.00;;;;10294818;28;20212;-76
2022/03/10 21:53:07;;;;;;;17.70;10.93;;;;;8.00;101190.00;;;;10303209;28;20208;-76
2022/03/10 21:58:09;;;;;;;19.43;11.37;;;;;7.90;101188.00;;;;10287714;28;20210;-76
2022/03/10 22:03:14;;;;;;;18.67;11.13;;;;;7.80;101194.00;;;;10306146;28;20236;-76
2022/03/10 22:08:17;;;;;;;16.73;10.30;;;;;7.60;101198.00;;;;10323170;28;20634;-76
2022/03/10 22:13:19;;;;;;;19.40;11.97;;;;;7.30;101193.00;;;;10302909;28;20212;-76
2022/03/10 22:18:24;;;;;;;18.63;11.30;;;;;7.10;101176.00;;;;10286728;28;20836;-76
2022/03/10 22:23:27;;;;;;;18.10;10.90;;;;;6.90;101177.00;;;;10291152;28;20248;-76
2022/03/10 22:28:29;;;;;;;16.37;9.70;;;;;6.80;101168.00;;;;10309931;28;20216;-76
2022/03/10 22:33:31;;;;;;;15.53;9.53;;;;;6.90;101161.00;;;;10316025;28;20442;-76
2022/03/10 22:38:34;;;;;;;17.07;8.60;;;;;7.00;101158.00;;;;10313716;28;20658;-76
2022/03/10 22:43:36;;;;;;;14.03;8.53;;;;;7.10;101149.00;;;;10285509;28;20223;-76
2022/03/10 22:48:38;;;;;;;12.13;7.70;;;;;7.10;101146.00;;;;10298946;28;20208;-77
2022/03/10 22:59:01;;;;;;;14.83;7.67;;;;;7.00;101146.00;;;;10328181;28;20204;-77
2022/03/10 23:09:25;;;;;;;10.07;7.17;;;;;6.80;101134.00;;;;10309136;28;20211;-77
2022/03/10 23:14:27;;;;;;;11.27;8.30;;;;;7.00;101139.00;;;;10311219;28;20211;-77
2022/03/10 23:19:32;;;;;;;16.10;8.07;;;;;6.70;101130.00;;;;10292241;28;20235;-77
2022/03/10 23:24:35;;;;;;;19.47;11.60;;;;;6.30;101122.00;;;;10309727;28;20231;-77
2022/03/10 23:29:37;;;;;;;15.90;9.63;;;;;5.90;101123.00;;;;10308758;28;20569;-77
2022/03/10 23:34:39;;;;;;;16.07;8.80;;;;;5.70;101110.00;;;;10274033;28;20203;-77
2022/03/10 23:39:42;;;;;;;13.23;7.73;;;;;5.60;101112.00;;;;10308367;28;20239;-76
2022/03/10 23:44:44;;;;;;;13.27;8.37;;;;;5.90;101118.00;;;;10306466;28;20224;-77
2022/03/10 23:49:46;;;;;;;13.93;8.03;;;;;5.90;101107.00;;;;10278668;28;20211;-77
2022/03/10 23:54:48;;;;;;;13.30;8.70;;;;;5.70;101106.00;;;;10300217;28;20220;-77
2022/03/10 23:59:51;;;;;;;12.70;7.73;;;;;5.80;101102.00;;;;10288423;28;20196;-77
